sensor_id;sensor_type;location;lat;lon;timestamp;P1;durP1;ratioP1;P2;durP2;ratioP2
15183;SDS011;7693;49.266;7.104;2022-09-13T05:14:08;14.80;;;8.97;;
15183;SDS011;7693;49.266;7.104;2022-09-13T05:16:34;8.87;;;8.00;;
15183;SDS011;7693;49.266;7.104;2022-09-13T05:19:00;12.97;;;8.43;;
15183;SDS011;7693;49.266;7.104;2022-09-13T05:21:26;12.80;;;11.43;;
15183;SDS011;7693;49.266;7.104;2022-09-13T05:23:52;12.40;;;11.17;;
15183;SDS011;7693;49.266;7.104;2022-09-13T05:26:20;15.93;;;14.43;;
15183;SDS011;7693;49.266;7.104;2022-09-13T05:28:47;17.00;;;15.17;;
15183;SDS011;7693;49.266;7.104;2022-09-13T05:31:20;16.73;;;14.77;;
15183;SDS011;7693;49.266;7.104;2022-09-13T05:33:54;13.53;;;11.83;;
15183;SDS011;7693;49.266;7.104;2022-09-13T05:36:25;14.30;;;12.90;;
15183;SDS011;7693;49.266;7.104;2022-09-13T05:38:53;12.23;;;10.60;;
15183;SDS011;7693;49.266;7.104;2022-09-13T05:41:19;9.87;;;8.90;;
15183;SDS011;7693;49.266;7.104;2022-09-13T05:43:45;9.03;;;7.30;;
15183;SDS011;7693;49.266;7.104;2022-09-13T05:46:18;6.23;;;5.67;;
15183;SDS011;7693;49.266;7.104;2022-09-13T05:48:44;10.17;;;6.27;;
15183;SDS011;7693;49.266;7.104;2022-09-13T05:53:41;6.80;;;5.70;;
15183;SDS011;7693;49.266;7.104;2022-09-13T05:56:10;6.27;;;5.67;;
15183;SDS011;7693;49.266;7.104;2022-09-13T05:58:40;8.67;;;6.20;;
15183;SDS011;7693;49.266;7.104;2022-09-13T06:01:07;7.20;;;5.87;;
15183;SDS011;7693;49.266;7.104;2022-09-13T06:03:34;6.43;;;5.90;;
15183;SDS011;7693;49.266;7.104;2022-09-13T06:06:00;9.27;;;6.10;;
15183;SDS011;7693;49.266;7.104;2022-09-13T06:08:27;7.57;;;6.13;;
15183;SDS011;7693;49.266;7.104;2022-09-13T06:10:55;6.83;;;6.17;;
15183;SDS011;7693;49.266;7.104;2022-09-13T06:13:22;6.27;;;5.67;;
15183;SDS011;7693;49.266;7.104;2022-09-13T06:15:49;6.30;;;5.73;;
15183;SDS011;7693;49.266;7.104;2022-09-13T06:18:14;7.80;;;6.03;;
15183;SDS011;7693;49.266;7.104;2022-09-13T06:20:41;6.60;;;6.00;;
15183;SDS011;7693;49.266;7.104;2022-09-13T06:23:07;9.57;;;5.93;;
15183;SDS011;7693;49.266;7.104;2022-09-13T06:25:32;7.27;;;6.53;;
15183;SDS011;7693;49.266;7.104;2022-09-13T06:27:58;8.80;;;7.23;;
15183;SDS011;7693;49.266;7.104;2022-09-13T06:30:24;9.05;;;8.20;;
15183;SDS011;7693;49.266;7.104;2022-09-13T06:32:49;9.50;;;6.10;;
15183;SDS011;7693;49.266;7.104;2022-09-13T06:35:15;11.07;;;6.23;;
15183;SDS011;7693;49.266;7.104;2022-09-13T06:37:40;6.93;;;5.90;;
15183;SDS011;7693;49.266;7.104;2022-09-13T06:40:06;9.82;;;5.97;;
15183;SDS011;7693;49.266;7.104;2022-09-13T06:42:34;9.00;;;5.88;;
15183;SDS011;7693;49.266;7.104;2022-09-13T06:45:00;7.65;;;6.13;;
15183;SDS011;7693;49.266;7.104;2022-09-13T06:47:25;6.67;;;6.03;;
15183;SDS011;7693;49.266;7.104;2022-09-13T06:49:51;6.35;;;5.72;;
15183;SDS011;7693;49.266;7.104;2022-09-13T06:52:17;6.60;;;5.32;;
15183;SDS011;7693;49.266;7.104;2022-09-13T06:54:42;6.55;;;5.95;;
15183;SDS011;7693;49.266;7.104;2022-09-13T06:57:08;7.22;;;5.80;;
15183;SDS011;7693;49.266;7.104;2022-09-13T06:59:34;6.07;;;5.57;;
15183;SDS011;7693;49.266;7.104;2022-09-13T07:01:59;6.32;;;5.82;;
15183;SDS011;7693;49.266;7.104;2022-09-13T07:04:25;7.63;;;5.30;;
15183;SDS011;7693;49.266;7.104;2022-09-13T07:06:55;6.40;;;5.53;;
15183;SDS011;7693;49.266;7.104;2022-09-13T07:09:21;5.55;;;5.15;;
15183;SDS011;7693;49.266;7.104;2022-09-13T07:11:48;7.78;;;5.18;;
15183;SDS011;7693;49.266;7.104;2022-09-13T07:14:19;5.35;;;4.90;;
15183;SDS011;7693;49.266;7.104;2022-09-13T07:16:46;12.25;;;5.55;;
15183;SDS011;7693;49.266;7.104;2022-09-13T07:19:16;8.23;;;5.30;;
15183;SDS011;7693;49.266;7.104;2022-09-13T07:21:44;5.88;;;5.47;;
15183;SDS011;7693;49.266;7.104;2022-09-13T07:24:10;6.28;;;5.72;;
15183;SDS011;7693;49.266;7.104;2022-09-13T07:26:36;5.38;;;4.97;;
15183;SDS011;7693;49.266;7.104;2022-09-13T07:29:04;5.80;;;5.25;;
15183;SDS011;7693;49.266;7.104;2022-09-13T07:31:32;5.05;;;4.65;;
15183;SDS011;7693;49.266;7.104;2022-09-13T07:34:00;5.20;;;4.80;;
15183;SDS011;7693;49.266;7.104;2022-09-13T07:36:28;5.70;;;5.20;;
15183;SDS011;7693;49.266;7.104;2022-09-13T07:38:56;5.70;;;5.03;;
15183;SDS011;7693;49.266;7.104;2022-09-13T07:41:23;5.97;;;5.15;;
15183;SDS011;7693;49.266;7.104;2022-09-13T07:43:50;8.35;;;5.63;;
15183;SDS011;7693;49.266;7.104;2022-09-13T07:46:20;8.00;;;5.18;;
15183;SDS011;7693;49.266;7.104;2022-09-13T07:48:47;5.60;;;5.20;;
15183;SDS011;7693;49.266;7.104;2022-09-13T07:51:14;5.18;;;4.95;;
15183;SDS011;7693;49.266;7.104;2022-09-13T07:53:43;5.00;;;4.78;;
15183;SDS011;7693;49.266;7.104;2022-09-13T07:56:10;5.35;;;4.95;;
15183;SDS011;7693;49.266;7.104;2022-09-13T07:58:41;5.20;;;4.57;;
15183;SDS011;7693;49.266;7.104;2022-09-13T08:01:08;5.97;;;4.97;;
15183;SDS011;7693;49.266;7.104;2022-09-13T08:03:44;5.30;;;4.70;;
15183;SDS011;7693;49.266;7.104;2022-09-13T08:06:15;6.57;;;4.35;;
15183;SDS011;7693;49.266;7.104;2022-09-13T08:08:41;8.55;;;4.47;;
15183;SDS011;7693;49.266;7.104;2022-09-13T08:11:07;4.57;;;4.20;;
15183;SDS011;7693;49.266;7.104;2022-09-13T08:13:32;4.07;;;3.88;;
15183;SDS011;7693;49.266;7.104;2022-09-13T08:16:04;4.95;;;4.55;;
15183;SDS011;7693;49.266;7.104;2022-09-13T08:18:31;8.10;;;4.40;;
15183;SDS011;7693;49.266;7.104;2022-09-13T08:20:59;7.60;;;4.20;;
15183;SDS011;7693;49.266;7.104;2022-09-13T08:23:25;4.57;;;4.20;;
15183;SDS011;7693;49.266;7.104;2022-09-13T08:25:51;4.03;;;3.83;;
15183;SDS011;7693;49.266;7.104;2022-09-13T08:28:17;3.95;;;3.75;;
15183;SDS011;7693;49.266;7.104;2022-09-13T08:30:47;8.30;;;3.83;;
15183;SDS011;7693;49.266;7.104;2022-09-13T08:33:13;4.55;;;4.18;;
15183;SDS011;7693;49.266;7.104;2022-09-13T08:35:39;4.00;;;3.70;;
15183;SDS011;7693;49.266;7.104;2022-09-13T08:38:06;4.95;;;4.43;;
15183;SDS011;7693;49.266;7.104;2022-09-13T11:34:55;1.35;;;1.35;;
15183;SDS011;7693;49.266;7.104;2022-09-13T11:45:34;2.00;;;1.90;;
15183;SDS011;7693;49.266;7.104;2022-09-13T11:51:03;1.50;;;1.50;;
15183;SDS011;7693;49.266;7.104;2022-09-13T11:56:08;1.58;;;1.48;;
15183;SDS011;7693;49.266;7.104;2022-09-13T11:58:42;2.92;;;1.55;;
15183;SDS011;7693;49.266;7.104;2022-09-13T12:01:20;5.97;;;2.08;;
15183;SDS011;7693;49.266;7.104;2022-09-13T12:06:30;1.60;;;1.50;;
15183;SDS011;7693;49.266;7.104;2022-09-13T12:09:05;2.28;;;1.75;;
15183;SDS011;7693;49.266;7.104;2022-09-13T12:11:52;2.95;;;1.65;;
15183;SDS011;7693;49.266;7.104;2022-09-13T12:14:31;3.05;;;1.73;;
15183;SDS011;7693;49.266;7.104;2022-09-13T12:17:06;1.63;;;1.52;;
15183;SDS011;7693;49.266;7.104;2022-09-13T12:19:46;1.90;;;1.63;;
15183;SDS011;7693;49.266;7.104;2022-09-13T12:22:15;1.35;;;1.35;;
15183;SDS011;7693;49.266;7.104;2022-09-13T17:55:01;4.40;;;2.90;;
15183;SDS011;7693;49.266;7.104;2022-09-13T17:57:27;4.60;;;2.47;;
15183;SDS011;7693;49.266;7.104;2022-09-13T17:59:53;2.75;;;2.22;;
15183;SDS011;7693;49.266;7.104;2022-09-13T18:02:19;2.63;;;2.38;;
15183;SDS011;7693;49.266;7.104;2022-09-13T18:04:46;5.35;;;2.47;;
15183;SDS011;7693;49.266;7.104;2022-09-13T18:07:17;4.70;;;2.30;;
15183;SDS011;7693;49.266;7.104;2022-09-13T18:09:43;2.72;;;2.55;;
15183;SDS011;7693;49.266;7.104;2022-09-13T18:12:09;2.63;;;2.10;;
15183;SDS011;7693;49.266;7.104;2022-09-13T18:14:36;2.90;;;2.00;;
15183;SDS011;7693;49.266;7.104;2022-09-13T18:17:02;2.75;;;2.25;;
15183;SDS011;7693;49.266;7.104;2022-09-13T18:19:34;2.80;;;2.63;;
15183;SDS011;7693;49.266;7.104;2022-09-13T18:22:00;2.63;;;2.45;;
15183;SDS011;7693;49.266;7.104;2022-09-13T18:24:25;3.40;;;2.33;;
15183;SDS011;7693;49.266;7.104;2022-09-13T18:26:51;3.28;;;2.38;;
15183;SDS011;7693;49.266;7.104;2022-09-13T18:29:17;5.10;;;2.42;;
15183;SDS011;7693;49.266;7.104;2022-09-13T18:31:42;2.67;;;2.58;;
15183;SDS011;7693;49.266;7.104;2022-09-13T18:34:09;2.50;;;2.40;;
15183;SDS011;7693;49.266;7.104;2022-09-13T18:36:36;4.32;;;4.05;;
15183;SDS011;7693;49.266;7.104;2022-09-13T18:39:03;3.10;;;3.00;;
15183;SDS011;7693;49.266;7.104;2022-09-13T18:41:34;3.28;;;2.80;;
15183;SDS011;7693;49.266;7.104;2022-09-13T18:44:02;4.68;;;2.80;;
15183;SDS011;7693;49.266;7.104;2022-09-13T18:46:33;4.18;;;3.72;;
15183;SDS011;7693;49.266;7.104;2022-09-13T18:49:00;3.92;;;3.65;;
15183;SDS011;7693;49.266;7.104;2022-09-13T18:51:28;7.13;;;3.20;;
15183;SDS011;7693;49.266;7.104;2022-09-13T18:53:58;5.70;;;3.10;;
15183;SDS011;7693;49.266;7.104;2022-09-13T18:56:25;4.53;;;3.75;;
15183;SDS011;7693;49.266;7.104;2022-09-13T18:58:52;6.97;;;3.88;;
15183;SDS011;7693;49.266;7.104;2022-09-13T19:01:22;4.53;;;3.47;;
15183;SDS011;7693;49.266;7.104;2022-09-13T19:04:03;3.95;;;3.58;;
15183;SDS011;7693;49.266;7.104;2022-09-13T19:08:58;5.40;;;3.92;;
15183;SDS011;7693;49.266;7.104;2022-09-13T19:11:25;5.20;;;3.33;;
15183;SDS011;7693;49.266;7.104;2022-09-13T19:13:55;4.80;;;3.40;;
15183;SDS011;7693;49.266;7.104;2022-09-13T19:16:21;3.30;;;3.10;;
15183;SDS011;7693;49.266;7.104;2022-09-13T19:18:47;3.47;;;3.25;;
15183;SDS011;7693;49.266;7.104;2022-09-13T19:21:25;4.00;;;3.10;;
15183;SDS011;7693;49.266;7.104;2022-09-13T19:23:53;3.63;;;3.10;;
15183;SDS011;7693;49.266;7.104;2022-09-13T19:26:24;3.65;;;3.20;;
15183;SDS011;7693;49.266;7.104;2022-09-13T19:28:53;3.72;;;2.88;;
15183;SDS011;7693;49.266;7.104;2022-09-13T19:31:25;3.10;;;2.90;;
15183;SDS011;7693;49.266;7.104;2022-09-13T19:33:54;4.95;;;3.10;;
15183;SDS011;7693;49.266;7.104;2022-09-13T19:36:22;3.25;;;2.92;;
15183;SDS011;7693;49.266;7.104;2022-09-13T19:38:49;2.40;;;2.30;;
15183;SDS011;7693;49.266;7.104;2022-09-13T19:41:16;5.40;;;2.75;;
15183;SDS011;7693;49.266;7.104;2022-09-13T19:43:43;5.82;;;2.90;;
15183;SDS011;7693;49.266;7.104;2022-09-13T19:46:12;2.67;;;2.40;;
15183;SDS011;7693;49.266;7.104;2022-09-13T19:48:40;4.25;;;2.72;;
15183;SDS011;7693;49.266;7.104;2022-09-13T19:51:08;2.63;;;2.53;;
15183;SDS011;7693;49.266;7.104;2022-09-13T19:53:36;3.53;;;2.20;;
15183;SDS011;7693;49.266;7.104;2022-09-13T19:56:03;5.07;;;2.45;;
15183;SDS011;7693;49.266;7.104;2022-09-13T19:58:30;2.95;;;2.65;;
15183;SDS011;7693;49.266;7.104;2022-09-13T20:01:03;3.65;;;2.63;;
15183;SDS011;7693;49.266;7.104;2022-09-13T20:03:39;2.72;;;2.33;;
15183;SDS011;7693;49.266;7.104;2022-09-13T20:06:05;2.80;;;2.70;;
15183;SDS011;7693;49.266;7.104;2022-09-13T20:08:33;3.50;;;2.65;;
15183;SDS011;7693;49.266;7.104;2022-09-13T20:11:03;3.45;;;2.35;;
15183;SDS011;7693;49.266;7.104;2022-09-13T20:13:30;3.22;;;2.58;;
15183;SDS011;7693;49.266;7.104;2022-09-13T20:15:56;2.33;;;2.22;;
15183;SDS011;7693;49.266;7.104;2022-09-13T20:18:21;3.67;;;2.58;;
15183;SDS011;7693;49.266;7.104;2022-09-13T20:20:47;2.50;;;2.30;;
15183;SDS011;7693;49.266;7.104;2022-09-13T20:23:14;3.03;;;2.80;;
15183;SDS011;7693;49.266;7.104;2022-09-13T20:25:41;3.95;;;2.67;;
15183;SDS011;7693;49.266;7.104;2022-09-13T20:28:08;3.05;;;2.80;;
15183;SDS011;7693;49.266;7.104;2022-09-13T20:30:34;9.85;;;2.72;;
15183;SDS011;7693;49.266;7.104;2022-09-13T20:33:01;2.83;;;2.55;;
15183;SDS011;7693;49.266;7.104;2022-09-13T20:35:27;3.58;;;2.47;;
15183;SDS011;7693;49.266;7.104;2022-09-13T20:37:53;2.88;;;2.70;;
15183;SDS011;7693;49.266;7.104;2022-09-13T20:40:19;6.07;;;2.78;;
15183;SDS011;7693;49.266;7.104;2022-09-13T20:42:48;2.80;;;2.70;;
15183;SDS011;7693;49.266;7.104;2022-09-13T20:45:13;3.00;;;2.58;;
15183;SDS011;7693;49.266;7.104;2022-09-13T20:47:40;3.40;;;2.92;;
15183;SDS011;7693;49.266;7.104;2022-09-13T20:50:06;2.97;;;2.88;;
15183;SDS011;7693;49.266;7.104;2022-09-13T20:52:32;4.20;;;2.80;;
15183;SDS011;7693;49.266;7.104;2022-09-13T20:54:57;3.45;;;3.20;;
15183;SDS011;7693;49.266;7.104;2022-09-13T20:57:23;2.88;;;2.78;;
15183;SDS011;7693;49.266;7.104;2022-09-13T20:59:49;3.90;;;3.20;;
15183;SDS011;7693;49.266;7.104;2022-09-13T21:02:15;5.70;;;3.53;;
15183;SDS011;7693;49.266;7.104;2022-09-13T21:04:41;7.68;;;3.75;;
15183;SDS011;7693;49.266;7.104;2022-09-13T21:07:09;7.72;;;3.60;;
15183;SDS011;7693;49.266;7.104;2022-09-13T21:09:54;5.65;;;3.72;;
15183;SDS011;7693;49.266;7.104;2022-09-13T21:12:20;3.65;;;3.35;;
15183;SDS011;7693;49.266;7.104;2022-09-13T21:14:46;3.72;;;3.53;;
15183;SDS011;7693;49.266;7.104;2022-09-13T21:17:11;3.72;;;3.28;;
15183;SDS011;7693;49.266;7.104;2022-09-13T21:19:37;3.63;;;3.35;;
15183;SDS011;7693;49.266;7.104;2022-09-13T21:22:02;4.32;;;3.92;;
15183;SDS011;7693;49.266;7.104;2022-09-13T21:24:28;4.68;;;3.30;;
15183;SDS011;7693;49.266;7.104;2022-09-13T21:26:55;4.35;;;3.65;;
15183;SDS011;7693;49.266;7.104;2022-09-13T21:29:21;3.95;;;3.65;;
15183;SDS011;7693;49.266;7.104;2022-09-13T21:31:46;6.82;;;3.80;;
15183;SDS011;7693;49.266;7.104;2022-09-13T21:34:13;3.92;;;3.72;;
15183;SDS011;7693;49.266;7.104;2022-09-13T21:36:40;4.10;;;3.83;;
15183;SDS011;7693;49.266;7.104;2022-09-13T21:39:07;3.88;;;3.45;;
15183;SDS011;7693;49.266;7.104;2022-09-13T21:41:33;5.45;;;3.53;;
15183;SDS011;7693;49.266;7.104;2022-09-13T21:43:59;3.65;;;3.30;;
15183;SDS011;7693;49.266;7.104;2022-09-13T21:46:25;3.88;;;3.58;;
15183;SDS011;7693;49.266;7.104;2022-09-13T21:48:57;5.45;;;3.95;;
15183;SDS011;7693;49.266;7.104;2022-09-13T21:51:31;5.78;;;3.88;;
15183;SDS011;7693;49.266;7.104;2022-09-13T21:54:02;5.13;;;4.00;;
15183;SDS011;7693;49.266;7.104;2022-09-13T21:56:34;4.00;;;3.70;;
15183;SDS011;7693;49.266;7.104;2022-09-13T21:59:14;8.48;;;4.18;;
15183;SDS011;7693;49.266;7.104;2022-09-13T22:01:41;4.75;;;4.20;;
